sensor_id;sensor_type;location;lat;lon;timestamp;P1;durP1;ratioP1;P2;durP2;ratioP2
23290;SDS011;11814;44.686;10.842;2023-04-01T00:00:29;37.67;;;24.30;;
23290;SDS011;11814;44.686;10.842;2023-04-01T00:02:55;33.40;;;23.27;;
23290;SDS011;11814;44.686;10.842;2023-04-01T00:05:22;44.30;;;23.38;;
23290;SDS011;11814;44.686;10.842;2023-04-01T00:07:49;38.90;;;24.52;;
23290;SDS011;11814;44.686;10.842;2023-04-01T00:10:16;37.42;;;23.08;;
23290;SDS011;11814;44.686;10.842;2023-04-01T00:12:43;37.30;;;24.15;;
23290;SDS011;11814;44.686;10.842;2023-04-01T00:15:09;35.67;;;23.80;;
23290;SDS011;11814;44.686;10.842;2023-04-01T00:17:36;34.58;;;23.60;;
23290;SDS011;11814;44.686;10.842;2023-04-01T00:20:03;36.95;;;25.35;;
23290;SDS011;11814;44.686;10.842;2023-04-01T00:22:29;37.13;;;24.52;;
23290;SDS011;11814;44.686;10.842;2023-04-01T00:24:55;34.25;;;23.25;;
23290;SDS011;11814;44.686;10.842;2023-04-01T00:27:20;33.90;;;22.15;;
23290;SDS011;11814;44.686;10.842;2023-04-01T00:29:46;36.55;;;24.40;;
23290;SDS011;11814;44.686;10.842;2023-04-01T00:32:13;35.53;;;23.85;;
23290;SDS011;11814;44.686;10.842;2023-04-01T00:34:39;37.20;;;24.75;;
23290;SDS011;11814;44.686;10.842;2023-04-01T00:37:05;36.80;;;23.38;;
23290;SDS011;11814;44.686;10.842;2023-04-01T00:39:32;39.70;;;23.98;;
23290;SDS011;11814;44.686;10.842;2023-04-01T00:41:59;41.47;;;24.20;;
23290;SDS011;11814;44.686;10.842;2023-04-01T00:44:30;35.67;;;24.08;;
23290;SDS011;11814;44.686;10.842;2023-04-01T00:46:58;44.13;;;25.08;;
23290;SDS011;11814;44.686;10.842;2023-04-01T00:49:29;38.15;;;24.67;;
23290;SDS011;11814;44.686;10.842;2023-04-01T00:52:07;41.25;;;25.05;;
23290;SDS011;11814;44.686;10.842;2023-04-01T00:54:35;40.15;;;25.48;;
23290;SDS011;11814;44.686;10.842;2023-04-01T00:57:05;41.03;;;26.38;;
23290;SDS011;11814;44.686;10.842;2023-04-01T00:59:49;40.15;;;27.50;;
23290;SDS011;11814;44.686;10.842;2023-04-01T01:02:17;44.67;;;28.95;;
23290;SDS011;11814;44.686;10.842;2023-04-01T01:04:44;43.40;;;27.38;;
23290;SDS011;11814;44.686;10.842;2023-04-01T01:15:26;38.17;;;26.88;;
23290;SDS011;11814;44.686;10.842;2023-04-01T01:28:56;37.95;;;23.90;;
23290;SDS011;11814;44.686;10.842;2023-04-01T01:31:33;36.03;;;25.30;;
23290;SDS011;11814;44.686;10.842;2023-04-01T01:34:40;39.10;;;27.05;;
23290;SDS011;11814;44.686;10.842;2023-04-01T01:37:16;40.92;;;28.05;;
23290;SDS011;11814;44.686;10.842;2023-04-01T01:39:44;36.58;;;25.98;;
23290;SDS011;11814;44.686;10.842;2023-04-01T01:42:16;38.20;;;27.13;;
23290;SDS011;11814;44.686;10.842;2023-04-01T01:44:45;41.80;;;26.23;;
23290;SDS011;11814;44.686;10.842;2023-04-01T01:47:14;40.22;;;27.88;;
23290;SDS011;11814;44.686;10.842;2023-04-01T01:49:41;42.75;;;28.42;;
23290;SDS011;11814;44.686;10.842;2023-04-01T01:52:10;44.83;;;29.35;;
23290;SDS011;11814;44.686;10.842;2023-04-01T01:54:46;49.95;;;29.27;;
23290;SDS011;11814;44.686;10.842;2023-04-01T01:57:13;42.97;;;28.50;;
23290;SDS011;11814;44.686;10.842;2023-04-01T01:59:40;43.75;;;28.35;;
23290;SDS011;11814;44.686;10.842;2023-04-01T02:02:08;37.92;;;26.98;;
23290;SDS011;11814;44.686;10.842;2023-04-01T02:04:36;44.53;;;28.40;;
23290;SDS011;11814;44.686;10.842;2023-04-01T02:07:05;41.58;;;29.67;;
23290;SDS011;11814;44.686;10.842;2023-04-01T02:09:36;49.85;;;30.83;;
23290;SDS011;11814;44.686;10.842;2023-04-01T02:12:03;45.17;;;29.40;;
23290;SDS011;11814;44.686;10.842;2023-04-01T02:14:39;40.60;;;29.88;;
23290;SDS011;11814;44.686;10.842;2023-04-01T02:17:11;43.08;;;28.70;;
23290;SDS011;11814;44.686;10.842;2023-04-01T02:19:43;48.60;;;30.92;;
23290;SDS011;11814;44.686;10.842;2023-04-01T02:22:36;53.03;;;31.30;;
23290;SDS011;11814;44.686;10.842;2023-04-01T02:25:11;44.67;;;31.05;;
23290;SDS011;11814;44.686;10.842;2023-04-01T02:27:40;46.72;;;32.30;;
23290;SDS011;11814;44.686;10.842;2023-04-01T02:30:08;48.70;;;31.92;;
23290;SDS011;11814;44.686;10.842;2023-04-01T02:32:35;47.20;;;31.17;;
23290;SDS011;11814;44.686;10.842;2023-04-01T02:35:04;45.10;;;29.75;;
23290;SDS011;11814;44.686;10.842;2023-04-01T02:37:32;50.42;;;33.95;;
23290;SDS011;11814;44.686;10.842;2023-04-01T02:40:02;49.70;;;31.67;;
23290;SDS011;11814;44.686;10.842;2023-04-01T02:42:31;48.10;;;31.83;;
23290;SDS011;11814;44.686;10.842;2023-04-01T02:44:57;51.78;;;34.00;;
23290;SDS011;11814;44.686;10.842;2023-04-01T02:47:23;50.80;;;32.63;;
23290;SDS011;11814;44.686;10.842;2023-04-01T02:49:49;45.67;;;31.42;;
23290;SDS011;11814;44.686;10.842;2023-04-01T02:52:14;39.53;;;26.77;;
23290;SDS011;11814;44.686;10.842;2023-04-01T02:54:40;45.75;;;29.20;;
23290;SDS011;11814;44.686;10.842;2023-04-01T02:57:06;43.78;;;28.92;;
23290;SDS011;11814;44.686;10.842;2023-04-01T02:59:32;46.00;;;31.67;;
23290;SDS011;11814;44.686;10.842;2023-04-01T03:01:58;51.05;;;34.90;;
23290;SDS011;11814;44.686;10.842;2023-04-01T03:04:23;56.28;;;33.88;;
23290;SDS011;11814;44.686;10.842;2023-04-01T03:06:49;50.22;;;35.63;;
23290;SDS011;11814;44.686;10.842;2023-04-01T03:09:16;44.95;;;31.55;;
23290;SDS011;11814;44.686;10.842;2023-04-01T03:11:42;44.85;;;32.28;;
23290;SDS011;11814;44.686;10.842;2023-04-01T03:14:07;45.55;;;29.05;;
23290;SDS011;11814;44.686;10.842;2023-04-01T03:16:33;42.20;;;29.02;;
23290;SDS011;11814;44.686;10.842;2023-04-01T03:18:59;33.38;;;24.85;;
23290;SDS011;11814;44.686;10.842;2023-04-01T03:21:27;10.38;;;8.65;;
23290;SDS011;11814;44.686;10.842;2023-04-01T03:23:53;10.80;;;8.65;;
23290;SDS011;11814;44.686;10.842;2023-04-01T03:26:18;27.83;;;8.18;;
23290;SDS011;11814;44.686;10.842;2023-04-01T03:28:45;14.65;;;11.15;;
23290;SDS011;11814;44.686;10.842;2023-04-01T03:31:10;16.25;;;14.20;;
23290;SDS011;11814;44.686;10.842;2023-04-01T03:33:36;29.77;;;19.55;;
23290;SDS011;11814;44.686;10.842;2023-04-01T03:36:02;30.90;;;21.67;;
23290;SDS011;11814;44.686;10.842;2023-04-01T03:38:31;29.67;;;21.50;;
23290;SDS011;11814;44.686;10.842;2023-04-01T03:40:58;15.82;;;13.23;;
23290;SDS011;11814;44.686;10.842;2023-04-01T03:43:24;8.30;;;7.50;;
23290;SDS011;11814;44.686;10.842;2023-04-01T03:45:50;12.30;;;11.00;;
23290;SDS011;11814;44.686;10.842;2023-04-01T03:48:17;32.97;;;23.90;;
23290;SDS011;11814;44.686;10.842;2023-04-01T03:50:43;43.22;;;17.80;;
23290;SDS011;11814;44.686;10.842;2023-04-01T03:53:10;34.78;;;19.45;;
23290;SDS011;11814;44.686;10.842;2023-04-01T03:55:36;40.33;;;22.02;;
23290;SDS011;11814;44.686;10.842;2023-04-01T03:58:03;31.40;;;19.92;;
23290;SDS011;11814;44.686;10.842;2023-04-01T04:00:29;33.53;;;22.10;;
23290;SDS011;11814;44.686;10.842;2023-04-01T04:02:55;55.30;;;21.42;;
23290;SDS011;11814;44.686;10.842;2023-04-01T04:05:22;30.20;;;23.08;;
23290;SDS011;11814;44.686;10.842;2023-04-01T04:07:49;32.65;;;23.40;;
23290;SDS011;11814;44.686;10.842;2023-04-01T04:10:15;37.97;;;27.33;;
23290;SDS011;11814;44.686;10.842;2023-04-01T04:12:41;39.40;;;27.40;;
23290;SDS011;11814;44.686;10.842;2023-04-01T04:15:08;41.80;;;30.35;;
23290;SDS011;11814;44.686;10.842;2023-04-01T04:17:34;45.95;;;31.65;;
23290;SDS011;11814;44.686;10.842;2023-04-01T04:20:00;43.85;;;29.73;;
23290;SDS011;11814;44.686;10.842;2023-04-01T04:22:26;36.00;;;25.73;;
23290;SDS011;11814;44.686;10.842;2023-04-01T04:24:52;44.33;;;31.48;;
23290;SDS011;11814;44.686;10.842;2023-04-01T04:27:18;39.55;;;28.77;;
23290;SDS011;11814;44.686;10.842;2023-04-01T04:29:44;48.63;;;32.80;;
23290;SDS011;11814;44.686;10.842;2023-04-01T04:32:09;45.40;;;32.00;;
23290;SDS011;11814;44.686;10.842;2023-04-01T04:34:35;41.20;;;26.17;;
23290;SDS011;11814;44.686;10.842;2023-04-01T04:37:01;38.38;;;24.90;;
23290;SDS011;11814;44.686;10.842;2023-04-01T04:39:27;36.70;;;25.75;;
23290;SDS011;11814;44.686;10.842;2023-04-01T04:41:52;30.52;;;19.45;;
23290;SDS011;11814;44.686;10.842;2023-04-01T04:44:18;31.33;;;22.83;;
23290;SDS011;11814;44.686;10.842;2023-04-01T04:46:44;42.55;;;29.73;;
23290;SDS011;11814;44.686;10.842;2023-04-01T04:49:10;41.58;;;30.77;;
23290;SDS011;11814;44.686;10.842;2023-04-01T04:51:35;43.45;;;30.95;;
23290;SDS011;11814;44.686;10.842;2023-04-01T04:54:02;47.67;;;31.30;;
23290;SDS011;11814;44.686;10.842;2023-04-01T04:56:29;46.25;;;32.28;;
23290;SDS011;11814;44.686;10.842;2023-04-01T04:58:55;32.88;;;25.13;;
23290;SDS011;11814;44.686;10.842;2023-04-01T05:01:21;39.40;;;28.05;;
23290;SDS011;11814;44.686;10.842;2023-04-01T05:03:47;37.15;;;26.15;;
23290;SDS011;11814;44.686;10.842;2023-04-01T05:06:14;35.70;;;25.00;;
23290;SDS011;11814;44.686;10.842;2023-04-01T05:08:40;32.63;;;22.88;;
23290;SDS011;11814;44.686;10.842;2023-04-01T05:11:09;29.95;;;22.65;;
23290;SDS011;11814;44.686;10.842;2023-04-01T05:13:40;33.90;;;25.25;;
23290;SDS011;11814;44.686;10.842;2023-04-01T05:16:08;25.90;;;20.10;;
23290;SDS011;11814;44.686;10.842;2023-04-01T05:18:38;25.02;;;19.33;;
23290;SDS011;11814;44.686;10.842;2023-04-01T05:21:04;34.33;;;23.48;;
23290;SDS011;11814;44.686;10.842;2023-04-01T05:23:33;31.48;;;21.77;;
23290;SDS011;11814;44.686;10.842;2023-04-01T05:26:02;33.63;;;23.35;;
23290;SDS011;11814;44.686;10.842;2023-04-01T05:28:29;31.00;;;23.08;;
23290;SDS011;11814;44.686;10.842;2023-04-01T05:30:54;39.05;;;25.92;;
23290;SDS011;11814;44.686;10.842;2023-04-01T05:33:23;41.13;;;29.98;;
23290;SDS011;11814;44.686;10.842;2023-04-01T05:35:48;40.40;;;29.90;;
23290;SDS011;11814;44.686;10.842;2023-04-01T05:38:14;59.20;;;36.05;;
23290;SDS011;11814;44.686;10.842;2023-04-01T05:40:40;49.80;;;33.95;;
23290;SDS011;11814;44.686;10.842;2023-04-01T05:43:05;49.60;;;33.80;;
23290;SDS011;11814;44.686;10.842;2023-04-01T05:45:31;53.92;;;36.17;;
23290;SDS011;11814;44.686;10.842;2023-04-01T05:47:57;41.75;;;29.02;;
23290;SDS011;11814;44.686;10.842;2023-04-01T05:50:24;40.85;;;26.38;;
23290;SDS011;11814;44.686;10.842;2023-04-01T05:52:50;37.38;;;25.73;;
23290;SDS011;11814;44.686;10.842;2023-04-01T05:55:16;44.70;;;29.10;;
23290;SDS011;11814;44.686;10.842;2023-04-01T05:57:41;40.83;;;29.30;;
23290;SDS011;11814;44.686;10.842;2023-04-01T06:00:09;46.13;;;29.70;;
23290;SDS011;11814;44.686;10.842;2023-04-01T06:02:35;48.05;;;31.83;;
23290;SDS011;11814;44.686;10.842;2023-04-01T06:05:24;50.45;;;32.20;;
23290;SDS011;11814;44.686;10.842;2023-04-01T06:08:32;53.08;;;31.90;;
23290;SDS011;11814;44.686;10.842;2023-04-01T06:15:52;45.00;;;32.45;;
23290;SDS011;11814;44.686;10.842;2023-04-01T06:24:31;52.60;;;35.30;;
23290;SDS011;11814;44.686;10.842;2023-04-01T06:37:48;36.90;;;27.52;;
23290;SDS011;11814;44.686;10.842;2023-04-01T06:43:42;38.83;;;26.80;;
23290;SDS011;11814;44.686;10.842;2023-04-01T06:54:47;33.00;;;25.05;;
23290;SDS011;11814;44.686;10.842;2023-04-01T06:57:31;37.97;;;21.52;;
23290;SDS011;11814;44.686;10.842;2023-04-01T07:00:04;29.67;;;22.58;;
23290;SDS011;11814;44.686;10.842;2023-04-01T07:02:50;29.52;;;21.35;;
23290;SDS011;11814;44.686;10.842;2023-04-01T07:05:25;30.67;;;19.83;;
23290;SDS011;11814;44.686;10.842;2023-04-01T07:07:56;28.40;;;19.30;;
23290;SDS011;11814;44.686;10.842;2023-04-01T07:13:03;25.30;;;20.10;;
23290;SDS011;11814;44.686;10.842;2023-04-01T07:15:38;28.42;;;19.35;;
23290;SDS011;11814;44.686;10.842;2023-04-01T07:18:30;30.10;;;19.38;;
23290;SDS011;11814;44.686;10.842;2023-04-01T07:20:59;29.33;;;18.17;;
23290;SDS011;11814;44.686;10.842;2023-04-01T07:23:36;23.17;;;17.10;;
23290;SDS011;11814;44.686;10.842;2023-04-01T07:26:40;26.77;;;17.42;;
23290;SDS011;11814;44.686;10.842;2023-04-01T07:28:59;21.88;;;16.35;;
23290;SDS011;11814;44.686;10.842;2023-04-01T07:34:26;26.75;;;16.85;;
23290;SDS011;11814;44.686;10.842;2023-04-01T07:37:00;23.58;;;15.52;;
23290;SDS011;11814;44.686;10.842;2023-04-01T07:48:25;22.92;;;15.27;;
23290;SDS011;11814;44.686;10.842;2023-04-01T08:07:09;18.75;;;13.82;;
23290;SDS011;11814;44.686;10.842;2023-04-01T08:22:56;17.98;;;12.23;;
23290;SDS011;11814;44.686;10.842;2023-04-01T08:25:33;15.85;;;11.75;;
23290;SDS011;11814;44.686;10.842;2023-04-01T08:28:11;18.70;;;11.73;;
23290;SDS011;11814;44.686;10.842;2023-04-01T08:33:40;18.08;;;11.98;;
23290;SDS011;11814;44.686;10.842;2023-04-01T08:36:12;18.55;;;12.23;;
23290;SDS011;11814;44.686;10.842;2023-04-01T08:38:59;14.40;;;11.18;;
23290;SDS011;11814;44.686;10.842;2023-04-01T08:55:25;15.55;;;11.25;;
23290;SDS011;11814;44.686;10.842;2023-04-01T08:58:20;14.57;;;11.10;;
23290;SDS011;11814;44.686;10.842;2023-04-01T09:09:40;16.73;;;10.80;;
23290;SDS011;11814;44.686;10.842;2023-04-01T09:14:42;15.80;;;10.73;;
23290;SDS011;11814;44.686;10.842;2023-04-01T09:45:00;10.38;;;7.93;;
23290;SDS011;11814;44.686;10.842;2023-04-01T09:59:31;9.82;;;7.03;;
23290;SDS011;11814;44.686;10.842;2023-04-01T10:32:40;13.60;;;6.57;;
23290;SDS011;11814;44.686;10.842;2023-04-01T10:46:14;7.07;;;5.50;;
23290;SDS011;11814;44.686;10.842;2023-04-01T10:49:02;11.40;;;5.97;;
23290;SDS011;11814;44.686;10.842;2023-04-01T10:56:46;6.45;;;5.55;;
23290;SDS011;11814;44.686;10.842;2023-04-01T11:33:18;9.23;;;6.00;;
23290;SDS011;11814;44.686;10.842;2023-04-01T11:39:11;8.68;;;5.03;;
23290;SDS011;11814;44.686;10.842;2023-04-01T11:44:34;11.10;;;6.03;;
23290;SDS011;11814;44.686;10.842;2023-04-01T11:47:28;10.35;;;5.90;;
23290;SDS011;11814;44.686;10.842;2023-04-01T12:01:04;8.85;;;4.78;;
23290;SDS011;11814;44.686;10.842;2023-04-01T12:14:44;6.07;;;4.30;;
23290;SDS011;11814;44.686;10.842;2023-04-01T12:26:15;5.93;;;2.95;;
23290;SDS011;11814;44.686;10.842;2023-04-01T12:37:33;1.60;;;0.68;;
23290;SDS011;11814;44.686;10.842;2023-04-01T12:58:03;2.53;;;0.40;;
23290;SDS011;11814;44.686;10.842;2023-04-01T13:03:41;1.02;;;0.30;;
23290;SDS011;11814;44.686;10.842;2023-04-01T13:20:49;0.35;;;0.08;;
23290;SDS011;11814;44.686;10.842;2023-04-01T13:29:36;1.25;;;0.10;;
23290;SDS011;11814;44.686;10.842;2023-04-01T13:32:18;0.47;;;0.00;;
23290;SDS011;11814;44.686;10.842;2023-04-01T13:35:08;1.88;;;0.25;;
23290;SDS011;11814;44.686;10.842;2023-04-01T13:40:32;0.80;;;0.10;;
23290;SDS011;11814;44.686;10.842;2023-04-01T13:43:08;0.85;;;0.10;;
23290;SDS011;11814;44.686;10.842;2023-04-01T13:54:03;0.17;;;0.10;;
23290;SDS011;11814;44.686;10.842;2023-04-01T13:57:16;2.20;;;0.10;;
23290;SDS011;11814;44.686;10.842;2023-04-01T14:04:59;0.77;;;0.15;;
23290;SDS011;11814;44.686;10.842;2023-04-01T14:13:01;1.98;;;0.10;;
23290;SDS011;11814;44.686;10.842;2023-04-01T14:15:39;0.57;;;0.17;;
23290;SDS011;11814;44.686;10.842;2023-04-01T14:21:46;1.00;;;0.08;;
23290;SDS011;11814;44.686;10.842;2023-04-01T14:27:40;1.10;;;0.10;;
23290;SDS011;11814;44.686;10.842;2023-04-01T14:30:17;0.13;;;0.00;;
23290;SDS011;11814;44.686;10.842;2023-04-01T14:33:04;0.85;;;0.10;;
23290;SDS011;11814;44.686;10.842;2023-04-01T14:35:37;1.58;;;0.10;;
23290;SDS011;11814;44.686;10.842;2023-04-01T14:47:28;0.73;;;0.10;;
23290;SDS011;11814;44.686;10.842;2023-04-01T14:50:09;0.70;;;0.10;;
23290;SDS011;11814;44.686;10.842;2023-04-01T14:52:40;0.45;;;0.03;;
23290;SDS011;11814;44.686;10.842;2023-04-01T14:55:21;2.83;;;0.10;;
23290;SDS011;11814;44.686;10.842;2023-04-01T14:58:04;0.88;;;0.10;;
23290;SDS011;11814;44.686;10.842;2023-04-01T15:01:06;0.57;;;0.10;;
23290;SDS011;11814;44.686;10.842;2023-04-01T15:20:29;0.73;;;0.10;;
23290;SDS011;11814;44.686;10.842;2023-04-01T15:25:45;6.28;;;0.20;;
23290;SDS011;11814;44.686;10.842;2023-04-01T15:31:50;0.47;;;0.00;;
23290;SDS011;11814;44.686;10.842;2023-04-01T15:34:33;1.33;;;0.10;;
23290;SDS011;11814;44.686;10.842;2023-04-01T15:50:54;1.23;;;0.20;;
23290;SDS011;11814;44.686;10.842;2023-04-01T15:53:34;2.92;;;0.10;;
23290;SDS011;11814;44.686;10.842;2023-04-01T15:56:24;0.60;;;0.20;;
23290;SDS011;11814;44.686;10.842;2023-04-01T15:59:22;2.58;;;0.10;;
23290;SDS011;11814;44.686;10.842;2023-04-01T16:21:37;2.25;;;0.13;;
23290;SDS011;11814;44.686;10.842;2023-04-01T16:24:30;0.63;;;0.20;;
23290;SDS011;11814;44.686;10.842;2023-04-01T16:27:12;0.70;;;0.10;;
23290;SDS011;11814;44.686;10.842;2023-04-01T16:30:02;0.10;;;0.10;;
23290;SDS011;11814;44.686;10.842;2023-04-01T16:32:54;0.85;;;0.17;;
23290;SDS011;11814;44.686;10.842;2023-04-01T16:35:48;0.30;;;0.10;;
23290;SDS011;11814;44.686;10.842;2023-04-01T16:49:30;1.02;;;0.15;;
23290;SDS011;11814;44.686;10.842;2023-04-01T16:59:35;1.08;;;0.10;;
23290;SDS011;11814;44.686;10.842;2023-04-01T17:04:38;4.40;;;0.20;;
23290;SDS011;11814;44.686;10.842;2023-04-01T17:07:13;0.73;;;0.20;;
23290;SDS011;11814;44.686;10.842;2023-04-01T17:10:00;1.92;;;0.17;;
23290;SDS011;11814;44.686;10.842;2023-04-01T17:13:03;4.22;;;0.20;;
23290;SDS011;11814;44.686;10.842;2023-04-01T17:18:23;1.77;;;0.13;;
23290;SDS011;11814;44.686;10.842;2023-04-01T17:21:20;1.98;;;0.30;;
23290;SDS011;11814;44.686;10.842;2023-04-01T17:24:04;1.90;;;0.28;;
23290;SDS011;11814;44.686;10.842;2023-04-01T17:35:26;0.75;;;0.20;;
23290;SDS011;11814;44.686;10.842;2023-04-01T17:38:04;2.25;;;0.30;;
23290;SDS011;11814;44.686;10.842;2023-04-01T17:45:48;1.48;;;0.30;;
23290;SDS011;11814;44.686;10.842;2023-04-01T17:51:06;1.85;;;0.30;;
23290;SDS011;11814;44.686;10.842;2023-04-01T17:59:22;4.47;;;0.40;;
23290;SDS011;11814;44.686;10.842;2023-04-01T18:05:21;4.22;;;1.13;;
23290;SDS011;11814;44.686;10.842;2023-04-01T18:13:41;7.78;;;1.17;;
23290;SDS011;11814;44.686;10.842;2023-04-01T18:16:14;8.40;;;1.02;;
23290;SDS011;11814;44.686;10.842;2023-04-01T18:18:54;6.60;;;1.08;;
23290;SDS011;11814;44.686;10.842;2023-04-01T18:21:48;6.85;;;0.85;;
23290;SDS011;11814;44.686;10.842;2023-04-01T18:24:34;4.88;;;0.60;;
23290;SDS011;11814;44.686;10.842;2023-04-01T18:37:47;1.58;;;0.38;;
23290;SDS011;11814;44.686;10.842;2023-04-01T18:40:20;1.95;;;0.68;;
23290;SDS011;11814;44.686;10.842;2023-04-01T18:45:43;0.80;;;0.43;;
23290;SDS011;11814;44.686;10.842;2023-04-01T18:51:17;1.48;;;0.50;;
23290;SDS011;11814;44.686;10.842;2023-04-01T18:53:56;1.48;;;0.65;;
23290;SDS011;11814;44.686;10.842;2023-04-01T18:56:30;4.95;;;0.90;;
23290;SDS011;11814;44.686;10.842;2023-04-01T19:05:07;3.92;;;1.30;;
23290;SDS011;11814;44.686;10.842;2023-04-01T19:07:55;3.33;;;1.10;;
23290;SDS011;11814;44.686;10.842;2023-04-01T19:10:38;2.75;;;1.10;;
23290;SDS011;11814;44.686;10.842;2023-04-01T19:13:59;3.63;;;0.95;;
23290;SDS011;11814;44.686;10.842;2023-04-01T19:18:54;6.53;;;1.63;;
23290;SDS011;11814;44.686;10.842;2023-04-01T19:21:32;3.47;;;1.10;;
23290;SDS011;11814;44.686;10.842;2023-04-01T19:27:22;3.67;;;1.20;;
23290;SDS011;11814;44.686;10.842;2023-04-01T19:35:49;8.15;;;1.60;;
23290;SDS011;11814;44.686;10.842;2023-04-01T19:38:39;4.28;;;1.88;;
23290;SDS011;11814;44.686;10.842;2023-04-01T19:52:45;4.15;;;1.25;;
23290;SDS011;11814;44.686;10.842;2023-04-01T19:58:14;6.85;;;1.55;;
23290;SDS011;11814;44.686;10.842;2023-04-01T20:03:09;5.03;;;1.85;;
23290;SDS011;11814;44.686;10.842;2023-04-01T20:05:48;4.15;;;1.50;;
23290;SDS011;11814;44.686;10.842;2023-04-01T20:19:34;3.70;;;1.42;;
23290;SDS011;11814;44.686;10.842;2023-04-01T20:22:28;5.35;;;1.67;;
23290;SDS011;11814;44.686;10.842;2023-04-01T20:25:03;4.68;;;1.83;;
23290;SDS011;11814;44.686;10.842;2023-04-01T20:27:38;4.38;;;1.58;;
23290;SDS011;11814;44.686;10.842;2023-04-01T20:33:28;4.72;;;1.38;;
23290;SDS011;11814;44.686;10.842;2023-04-01T20:44:21;6.25;;;2.15;;
23290;SDS011;11814;44.686;10.842;2023-04-01T20:49:52;5.88;;;2.25;;
23290;SDS011;11814;44.686;10.842;2023-04-01T20:52:49;8.15;;;1.67;;
23290;SDS011;11814;44.686;10.842;2023-04-01T21:14:56;10.27;;;2.40;;
23290;SDS011;11814;44.686;10.842;2023-04-01T21:20:39;8.50;;;1.95;;
23290;SDS011;11814;44.686;10.842;2023-04-01T21:23:17;7.53;;;2.53;;
23290;SDS011;11814;44.686;10.842;2023-04-01T21:26:09;7.47;;;2.08;;
23290;SDS011;11814;44.686;10.842;2023-04-01T21:31:27;9.30;;;2.17;;
23290;SDS011;11814;44.686;10.842;2023-04-01T21:36:54;8.27;;;3.00;;
23290;SDS011;11814;44.686;10.842;2023-04-01T22:07:16;11.52;;;2.72;;
23290;SDS011;11814;44.686;10.842;2023-04-01T22:09:48;7.57;;;2.38;;
23290;SDS011;11814;44.686;10.842;2023-04-01T22:26:02;8.10;;;1.92;;
23290;SDS011;11814;44.686;10.842;2023-04-01T22:28:50;10.85;;;2.03;;
23290;SDS011;11814;44.686;10.842;2023-04-01T22:31:25;5.65;;;1.63;;
23290;SDS011;11814;44.686;10.842;2023-04-01T22:50:40;5.80;;;1.77;;
23290;SDS011;11814;44.686;10.842;2023-04-01T22:56:22;8.20;;;1.30;;
23290;SDS011;11814;44.686;10.842;2023-04-01T23:02:39;6.20;;;1.65;;
23290;SDS011;11814;44.686;10.842;2023-04-01T23:05:11;6.65;;;1.50;;
23290;SDS011;11814;44.686;10.842;2023-04-01T23:12:47;8.52;;;1.70;;
23290;SDS011;11814;44.686;10.842;2023-04-01T23:15:16;9.50;;;1.95;;
23290;SDS011;11814;44.686;10.842;2023-04-01T23:17:53;7.82;;;2.05;;
23290;SDS011;11814;44.686;10.842;2023-04-01T23:26:21;5.25;;;1.95;;
23290;SDS011;11814;44.686;10.842;2023-04-01T23:29:03;4.75;;;1.63;;
23290;SDS011;11814;44.686;10.842;2023-04-01T23:36:58;8.43;;;2.15;;
23290;SDS011;11814;44.686;10.842;2023-04-01T23:39:35;10.02;;;2.47;;
23290;SDS011;11814;44.686;10.842;2023-04-01T23:42:07;14.48;;;2.97;;
23290;SDS011;11814;44.686;10.842;2023-04-01T23:44:39;10.85;;;2.53;;
23290;SDS011;11814;44.686;10.842;2023-04-01T23:47:06;10.15;;;3.45;;
23290;SDS011;11814;44.686;10.842;2023-04-01T23:49:38;11.98;;;3.03;;
23290;SDS011;11814;44.686;10.842;2023-04-01T23:52:10;6.22;;;3.05;;
23290;SDS011;11814;44.686;10.842;2023-04-01T23:57:27;7.75;;;2.80;;
